sensor_id;sensor_type;location;lat;lon;timestamp;P1;durP1;ratioP1;P2;durP2;ratioP2
3791;SDS011;1911;53.768;11.474;2023-08-24T00:02:00;3.23;;;2.63;;
3791;SDS011;1911;53.768;11.474;2023-08-24T00:04:26;6.77;;;2.57;;
3791;SDS011;1911;53.768;11.474;2023-08-24T00:06:53;4.30;;;2.27;;
3791;SDS011;1911;53.768;11.474;2023-08-24T00:09:19;6.47;;;2.60;;
3791;SDS011;1911;53.768;11.474;2023-08-24T00:11:44;3.90;;;2.40;;
3791;SDS011;1911;53.768;11.474;2023-08-24T00:14:10;4.33;;;2.40;;
3791;SDS011;1911;53.768;11.474;2023-08-24T00:16:36;4.40;;;2.40;;
3791;SDS011;1911;53.768;11.474;2023-08-24T00:19:02;4.13;;;2.50;;
3791;SDS011;1911;53.768;11.474;2023-08-24T00:21:27;3.53;;;2.40;;
3791;SDS011;1911;53.768;11.474;2023-08-24T00:23:53;3.70;;;2.40;;
3791;SDS011;1911;53.768;11.474;2023-08-24T00:26:19;3.23;;;2.17;;
3791;SDS011;1911;53.768;11.474;2023-08-24T00:28:45;7.33;;;2.70;;
3791;SDS011;1911;53.768;11.474;2023-08-24T00:31:11;2.60;;;2.10;;
3791;SDS011;1911;53.768;11.474;2023-08-24T00:33:37;4.00;;;2.27;;
3791;SDS011;1911;53.768;11.474;2023-08-24T00:36:05;3.80;;;2.30;;
3791;SDS011;1911;53.768;11.474;2023-08-24T00:38:30;5.43;;;2.07;;
3791;SDS011;1911;53.768;11.474;2023-08-24T00:40:56;6.03;;;2.13;;
3791;SDS011;1911;53.768;11.474;2023-08-24T00:43:24;2.50;;;1.90;;
3791;SDS011;1911;53.768;11.474;2023-08-24T00:45:51;6.33;;;2.20;;
3791;SDS011;1911;53.768;11.474;2023-08-24T00:48:20;2.20;;;1.60;;
3791;SDS011;1911;53.768;11.474;2023-08-24T00:50:51;4.80;;;2.57;;
3791;SDS011;1911;53.768;11.474;2023-08-24T00:53:20;2.83;;;2.37;;
3791;SDS011;1911;53.768;11.474;2023-08-24T00:55:48;5.47;;;2.33;;
3791;SDS011;1911;53.768;11.474;2023-08-24T00:58:14;3.73;;;2.07;;
3791;SDS011;1911;53.768;11.474;2023-08-24T01:00:39;1.90;;;1.50;;
3791;SDS011;1911;53.768;11.474;2023-08-24T01:03:06;3.60;;;2.27;;
3791;SDS011;1911;53.768;11.474;2023-08-24T01:05:31;4.27;;;2.40;;
3791;SDS011;1911;53.768;11.474;2023-08-24T01:07:57;6.90;;;2.50;;
3791;SDS011;1911;53.768;11.474;2023-08-24T01:10:23;2.47;;;2.00;;
3791;SDS011;1911;53.768;11.474;2023-08-24T01:12:56;3.53;;;2.50;;
3791;SDS011;1911;53.768;11.474;2023-08-24T01:18:04;7.07;;;3.00;;
3791;SDS011;1911;53.768;11.474;2023-08-24T01:20:31;4.97;;;2.10;;
3791;SDS011;1911;53.768;11.474;2023-08-24T01:26:13;3.20;;;2.57;;
3791;SDS011;1911;53.768;11.474;2023-08-24T01:28:42;5.33;;;2.40;;
3791;SDS011;1911;53.768;11.474;2023-08-24T01:31:09;4.13;;;2.53;;
3791;SDS011;1911;53.768;11.474;2023-08-24T01:33:36;3.03;;;2.30;;
3791;SDS011;1911;53.768;11.474;2023-08-24T01:36:02;2.93;;;2.10;;
3791;SDS011;1911;53.768;11.474;2023-08-24T01:38:28;3.40;;;2.27;;
3791;SDS011;1911;53.768;11.474;2023-08-24T01:40:59;4.00;;;2.60;;
3791;SDS011;1911;53.768;11.474;2023-08-24T01:43:31;4.30;;;2.80;;
3791;SDS011;1911;53.768;11.474;2023-08-24T01:46:01;4.80;;;2.43;;
3791;SDS011;1911;53.768;11.474;2023-08-24T01:48:29;4.70;;;3.07;;
3791;SDS011;1911;53.768;11.474;2023-08-24T01:50:56;4.77;;;3.17;;
3791;SDS011;1911;53.768;11.474;2023-08-24T01:53:22;3.83;;;2.87;;
3791;SDS011;1911;53.768;11.474;2023-08-24T01:55:48;4.40;;;2.73;;
3791;SDS011;1911;53.768;11.474;2023-08-24T01:58:14;4.13;;;2.67;;
3791;SDS011;1911;53.768;11.474;2023-08-24T02:00:40;4.20;;;2.97;;
3791;SDS011;1911;53.768;11.474;2023-08-24T02:03:06;3.73;;;3.20;;
3791;SDS011;1911;53.768;11.474;2023-08-24T02:05:31;6.90;;;3.30;;
3791;SDS011;1911;53.768;11.474;2023-08-24T02:07:57;5.33;;;3.33;;
3791;SDS011;1911;53.768;11.474;2023-08-24T02:10:24;6.90;;;3.30;;
3791;SDS011;1911;53.768;11.474;2023-08-24T02:12:50;4.90;;;3.10;;
3791;SDS011;1911;53.768;11.474;2023-08-24T02:15:16;4.10;;;3.40;;
3791;SDS011;1911;53.768;11.474;2023-08-24T02:17:42;5.60;;;3.90;;
3791;SDS011;1911;53.768;11.474;2023-08-24T02:20:08;6.10;;;4.20;;
3791;SDS011;1911;53.768;11.474;2023-08-24T02:22:36;4.47;;;3.50;;
3791;SDS011;1911;53.768;11.474;2023-08-24T02:25:02;5.03;;;3.43;;
3791;SDS011;1911;53.768;11.474;2023-08-24T02:27:29;11.23;;;4.27;;
3791;SDS011;1911;53.768;11.474;2023-08-24T02:29:55;7.67;;;3.77;;
3791;SDS011;1911;53.768;11.474;2023-08-24T02:32:21;4.70;;;3.60;;
3791;SDS011;1911;53.768;11.474;2023-08-24T02:34:46;9.40;;;4.93;;
3791;SDS011;1911;53.768;11.474;2023-08-24T02:37:12;6.10;;;4.23;;
3791;SDS011;1911;53.768;11.474;2023-08-24T02:39:38;5.17;;;3.90;;
3791;SDS011;1911;53.768;11.474;2023-08-24T02:42:03;7.20;;;4.53;;
3791;SDS011;1911;53.768;11.474;2023-08-24T02:44:29;4.30;;;3.77;;
3791;SDS011;1911;53.768;11.474;2023-08-24T02:46:56;6.67;;;3.80;;
3791;SDS011;1911;53.768;11.474;2023-08-24T02:49:22;6.43;;;4.30;;
3791;SDS011;1911;53.768;11.474;2023-08-24T02:51:48;5.00;;;4.30;;
3791;SDS011;1911;53.768;11.474;2023-08-24T02:54:13;5.20;;;4.30;;
3791;SDS011;1911;53.768;11.474;2023-08-24T02:56:39;5.93;;;3.50;;
3791;SDS011;1911;53.768;11.474;2023-08-24T02:59:05;5.77;;;4.10;;
3791;SDS011;1911;53.768;11.474;2023-08-24T03:01:30;6.90;;;4.33;;
3791;SDS011;1911;53.768;11.474;2023-08-24T03:03:56;10.47;;;4.67;;
3791;SDS011;1911;53.768;11.474;2023-08-24T03:06:21;4.53;;;3.67;;
3791;SDS011;1911;53.768;11.474;2023-08-24T03:08:49;8.60;;;4.40;;
3791;SDS011;1911;53.768;11.474;2023-08-24T03:11:15;12.93;;;4.10;;
3791;SDS011;1911;53.768;11.474;2023-08-24T03:13:40;12.27;;;4.57;;
3791;SDS011;1911;53.768;11.474;2023-08-24T03:16:06;9.33;;;3.97;;
3791;SDS011;1911;53.768;11.474;2023-08-24T03:18:33;9.37;;;4.83;;
3791;SDS011;1911;53.768;11.474;2023-08-24T03:20:59;5.03;;;4.17;;
3791;SDS011;1911;53.768;11.474;2023-08-24T03:23:25;8.57;;;4.70;;
3791;SDS011;1911;53.768;11.474;2023-08-24T03:25:51;6.73;;;4.30;;
3791;SDS011;1911;53.768;11.474;2023-08-24T03:28:17;5.77;;;4.67;;
3791;SDS011;1911;53.768;11.474;2023-08-24T03:30:46;6.63;;;4.97;;
3791;SDS011;1911;53.768;11.474;2023-08-24T03:33:13;7.43;;;4.30;;
3791;SDS011;1911;53.768;11.474;2023-08-24T03:35:39;6.53;;;4.80;;
3791;SDS011;1911;53.768;11.474;2023-08-24T03:38:05;10.40;;;5.70;;
3791;SDS011;1911;53.768;11.474;2023-08-24T03:40:31;6.70;;;3.70;;
3791;SDS011;1911;53.768;11.474;2023-08-24T03:42:56;7.60;;;4.90;;
3791;SDS011;1911;53.768;11.474;2023-08-24T03:45:22;10.70;;;5.30;;
3791;SDS011;1911;53.768;11.474;2023-08-24T03:47:48;10.00;;;4.90;;
3791;SDS011;1911;53.768;11.474;2023-08-24T03:50:14;8.73;;;4.63;;
3791;SDS011;1911;53.768;11.474;2023-08-24T03:52:40;8.13;;;4.40;;
3791;SDS011;1911;53.768;11.474;2023-08-24T03:55:06;6.87;;;5.10;;
3791;SDS011;1911;53.768;11.474;2023-08-24T03:57:32;7.23;;;5.20;;
3791;SDS011;1911;53.768;11.474;2023-08-24T03:59:58;8.30;;;5.20;;
3791;SDS011;1911;53.768;11.474;2023-08-24T04:02:24;9.53;;;5.60;;
3791;SDS011;1911;53.768;11.474;2023-08-24T04:04:52;7.23;;;4.40;;
3791;SDS011;1911;53.768;11.474;2023-08-24T04:07:18;9.20;;;4.77;;
3791;SDS011;1911;53.768;11.474;2023-08-24T04:09:44;7.60;;;4.40;;
3791;SDS011;1911;53.768;11.474;2023-08-24T04:12:10;7.70;;;4.73;;
3791;SDS011;1911;53.768;11.474;2023-08-24T04:14:36;7.30;;;4.60;;
3791;SDS011;1911;53.768;11.474;2023-08-24T04:17:01;6.70;;;5.27;;
3791;SDS011;1911;53.768;11.474;2023-08-24T04:19:27;6.50;;;5.23;;
3791;SDS011;1911;53.768;11.474;2023-08-24T04:21:53;8.07;;;4.70;;
3791;SDS011;1911;53.768;11.474;2023-08-24T04:24:18;10.90;;;5.40;;
3791;SDS011;1911;53.768;11.474;2023-08-24T04:26:44;8.13;;;6.60;;
3791;SDS011;1911;53.768;11.474;2023-08-24T04:29:09;10.33;;;5.70;;
3791;SDS011;1911;53.768;11.474;2023-08-24T04:31:35;7.37;;;4.90;;
3791;SDS011;1911;53.768;11.474;2023-08-24T04:34:02;6.60;;;5.23;;
3791;SDS011;1911;53.768;11.474;2023-08-24T04:36:28;9.27;;;5.80;;
3791;SDS011;1911;53.768;11.474;2023-08-24T04:38:54;9.80;;;5.87;;
3791;SDS011;1911;53.768;11.474;2023-08-24T04:41:20;8.87;;;5.47;;
3791;SDS011;1911;53.768;11.474;2023-08-24T04:43:45;12.87;;;5.20;;
3791;SDS011;1911;53.768;11.474;2023-08-24T04:46:11;14.37;;;5.67;;
3791;SDS011;1911;53.768;11.474;2023-08-24T04:48:37;7.20;;;5.40;;
3791;SDS011;1911;53.768;11.474;2023-08-24T04:51:02;12.63;;;5.20;;
3791;SDS011;1911;53.768;11.474;2023-08-24T04:53:28;5.93;;;5.33;;
3791;SDS011;1911;53.768;11.474;2023-08-24T04:55:54;11.50;;;6.63;;
3791;SDS011;1911;53.768;11.474;2023-08-24T04:58:19;7.73;;;5.73;;
3791;SDS011;1911;53.768;11.474;2023-08-24T05:00:45;12.47;;;6.63;;
3791;SDS011;1911;53.768;11.474;2023-08-24T05:03:11;6.57;;;5.30;;
3791;SDS011;1911;53.768;11.474;2023-08-24T05:05:37;10.40;;;5.60;;
3791;SDS011;1911;53.768;11.474;2023-08-24T05:08:03;7.20;;;5.93;;
3791;SDS011;1911;53.768;11.474;2023-08-24T05:10:36;7.90;;;5.47;;
3791;SDS011;1911;53.768;11.474;2023-08-24T05:13:02;6.20;;;5.27;;
3791;SDS011;1911;53.768;11.474;2023-08-24T05:15:28;8.77;;;5.80;;
3791;SDS011;1911;53.768;11.474;2023-08-24T05:17:54;12.27;;;6.23;;
3791;SDS011;1911;53.768;11.474;2023-08-24T05:20:24;5.77;;;4.97;;
3791;SDS011;1911;53.768;11.474;2023-08-24T05:22:53;8.93;;;6.33;;
3791;SDS011;1911;53.768;11.474;2023-08-24T05:25:22;6.47;;;5.27;;
3791;SDS011;1911;53.768;11.474;2023-08-24T05:27:48;10.37;;;4.97;;
3791;SDS011;1911;53.768;11.474;2023-08-24T05:30:14;7.93;;;4.80;;
3791;SDS011;1911;53.768;11.474;2023-08-24T05:32:39;10.63;;;5.73;;
3791;SDS011;1911;53.768;11.474;2023-08-24T05:35:05;7.70;;;4.83;;
3791;SDS011;1911;53.768;11.474;2023-08-24T05:37:32;10.83;;;4.87;;
3791;SDS011;1911;53.768;11.474;2023-08-24T05:39:58;8.60;;;4.80;;
3791;SDS011;1911;53.768;11.474;2023-08-24T05:42:24;5.40;;;4.27;;
3791;SDS011;1911;53.768;11.474;2023-08-24T05:44:50;6.80;;;3.80;;
3791;SDS011;1911;53.768;11.474;2023-08-24T05:47:16;16.43;;;4.43;;
3791;SDS011;1911;53.768;11.474;2023-08-24T05:49:41;5.43;;;4.20;;
3791;SDS011;1911;53.768;11.474;2023-08-24T05:52:07;6.30;;;3.87;;
3791;SDS011;1911;53.768;11.474;2023-08-24T05:54:33;7.40;;;3.70;;
3791;SDS011;1911;53.768;11.474;2023-08-24T05:56:58;5.60;;;3.27;;
3791;SDS011;1911;53.768;11.474;2023-08-24T05:59:25;6.47;;;3.70;;
3791;SDS011;1911;53.768;11.474;2023-08-24T06:01:51;4.20;;;3.33;;
3791;SDS011;1911;53.768;11.474;2023-08-24T06:04:17;6.10;;;3.57;;
3791;SDS011;1911;53.768;11.474;2023-08-24T06:06:43;5.43;;;3.40;;
3791;SDS011;1911;53.768;11.474;2023-08-24T06:09:08;6.67;;;3.10;;
3791;SDS011;1911;53.768;11.474;2023-08-24T06:11:35;7.10;;;3.53;;
3791;SDS011;1911;53.768;11.474;2023-08-24T06:14:00;3.27;;;2.53;;
3791;SDS011;1911;53.768;11.474;2023-08-24T06:16:26;3.50;;;2.70;;
3791;SDS011;1911;53.768;11.474;2023-08-24T06:18:52;3.90;;;2.70;;
3791;SDS011;1911;53.768;11.474;2023-08-24T06:21:18;3.73;;;3.07;;
3791;SDS011;1911;53.768;11.474;2023-08-24T06:23:43;3.90;;;2.00;;
3791;SDS011;1911;53.768;11.474;2023-08-24T06:26:09;5.37;;;1.90;;
3791;SDS011;1911;53.768;11.474;2023-08-24T06:28:35;3.13;;;1.90;;
3791;SDS011;1911;53.768;11.474;2023-08-24T06:31:01;2.80;;;2.07;;
3791;SDS011;1911;53.768;11.474;2023-08-24T06:33:27;3.40;;;2.47;;
3791;SDS011;1911;53.768;11.474;2023-08-24T06:35:56;3.93;;;2.17;;
3791;SDS011;1911;53.768;11.474;2023-08-24T06:38:22;2.90;;;1.70;;
3791;SDS011;1911;53.768;11.474;2023-08-24T06:40:47;5.27;;;2.07;;
3791;SDS011;1911;53.768;11.474;2023-08-24T06:43:13;3.40;;;2.50;;
3791;SDS011;1911;53.768;11.474;2023-08-24T06:45:39;3.73;;;2.70;;
3791;SDS011;1911;53.768;11.474;2023-08-24T06:48:05;2.37;;;1.60;;
3791;SDS011;1911;53.768;11.474;2023-08-24T06:50:32;10.20;;;1.90;;
3791;SDS011;1911;53.768;11.474;2023-08-24T06:52:58;2.83;;;1.63;;
3791;SDS011;1911;53.768;11.474;2023-08-24T06:55:23;4.07;;;2.53;;
3791;SDS011;1911;53.768;11.474;2023-08-24T06:57:49;2.40;;;1.60;;
3791;SDS011;1911;53.768;11.474;2023-08-24T07:00:18;3.83;;;1.83;;
3791;SDS011;1911;53.768;11.474;2023-08-24T07:02:45;2.40;;;1.53;;
3791;SDS011;1911;53.768;11.474;2023-08-24T07:05:11;3.70;;;2.00;;
3791;SDS011;1911;53.768;11.474;2023-08-24T07:07:37;3.97;;;2.20;;
3791;SDS011;1911;53.768;11.474;2023-08-24T07:10:03;4.53;;;1.47;;
3791;SDS011;1911;53.768;11.474;2023-08-24T07:12:29;2.03;;;1.50;;
3791;SDS011;1911;53.768;11.474;2023-08-24T07:14:55;1.97;;;1.67;;
3791;SDS011;1911;53.768;11.474;2023-08-24T07:17:20;3.60;;;1.50;;
3791;SDS011;1911;53.768;11.474;2023-08-24T07:19:46;5.80;;;2.03;;
3791;SDS011;1911;53.768;11.474;2023-08-24T07:22:12;3.33;;;1.53;;
3791;SDS011;1911;53.768;11.474;2023-08-24T07:24:37;5.63;;;1.50;;
3791;SDS011;1911;53.768;11.474;2023-08-24T07:27:03;2.50;;;1.33;;
3791;SDS011;1911;53.768;11.474;2023-08-24T07:29:29;1.70;;;1.37;;
3791;SDS011;1911;53.768;11.474;2023-08-24T07:31:54;3.00;;;1.40;;
3791;SDS011;1911;53.768;11.474;2023-08-24T07:34:20;4.20;;;1.53;;
3791;SDS011;1911;53.768;11.474;2023-08-24T07:36:47;3.90;;;1.60;;
3791;SDS011;1911;53.768;11.474;2023-08-24T07:39:13;1.50;;;1.10;;
3791;SDS011;1911;53.768;11.474;2023-08-24T07:41:40;7.77;;;2.07;;
3791;SDS011;1911;53.768;11.474;2023-08-24T07:44:09;1.43;;;1.23;;
3791;SDS011;1911;53.768;11.474;2023-08-24T07:46:35;3.30;;;1.80;;
3791;SDS011;1911;53.768;11.474;2023-08-24T07:49:00;3.10;;;1.97;;
3791;SDS011;1911;53.768;11.474;2023-08-24T07:51:26;4.17;;;2.37;;
3791;SDS011;1911;53.768;11.474;2023-08-24T07:53:53;2.70;;;1.67;;
3791;SDS011;1911;53.768;11.474;2023-08-24T07:56:18;2.93;;;1.53;;
3791;SDS011;1911;53.768;11.474;2023-08-24T07:58:44;2.97;;;1.70;;
3791;SDS011;1911;53.768;11.474;2023-08-24T08:01:10;2.20;;;1.33;;
3791;SDS011;1911;53.768;11.474;2023-08-24T08:03:36;4.17;;;1.87;;
3791;SDS011;1911;53.768;11.474;2023-08-24T08:06:02;2.97;;;1.70;;
3791;SDS011;1911;53.768;11.474;2023-08-24T08:08:28;6.93;;;1.90;;
3791;SDS011;1911;53.768;11.474;2023-08-24T08:11:00;2.23;;;1.40;;
3791;SDS011;1911;53.768;11.474;2023-08-24T08:13:27;5.10;;;1.10;;
3791;SDS011;1911;53.768;11.474;2023-08-24T08:15:53;3.40;;;1.20;;
3791;SDS011;1911;53.768;11.474;2023-08-24T08:18:19;2.37;;;1.10;;
3791;SDS011;1911;53.768;11.474;2023-08-24T08:20:45;1.83;;;1.10;;
3791;SDS011;1911;53.768;11.474;2023-08-24T08:23:10;1.80;;;1.20;;
3791;SDS011;1911;53.768;11.474;2023-08-24T08:25:36;2.80;;;1.70;;
3791;SDS011;1911;53.768;11.474;2023-08-24T08:28:02;3.00;;;1.40;;
3791;SDS011;1911;53.768;11.474;2023-08-24T08:30:28;2.70;;;1.30;;
3791;SDS011;1911;53.768;11.474;2023-08-24T08:32:54;2.90;;;1.30;;
3791;SDS011;1911;53.768;11.474;2023-08-24T08:35:21;2.43;;;0.90;;
3791;SDS011;1911;53.768;11.474;2023-08-24T08:37:47;6.40;;;1.67;;
3791;SDS011;1911;53.768;11.474;2023-08-24T08:40:14;3.63;;;1.30;;
3791;SDS011;1911;53.768;11.474;2023-08-24T08:42:40;4.50;;;1.20;;
3791;SDS011;1911;53.768;11.474;2023-08-24T08:45:08;2.90;;;1.07;;
3791;SDS011;1911;53.768;11.474;2023-08-24T08:47:35;1.67;;;1.00;;
3791;SDS011;1911;53.768;11.474;2023-08-24T08:50:01;2.27;;;1.10;;
3791;SDS011;1911;53.768;11.474;2023-08-24T08:52:28;2.83;;;1.20;;
3791;SDS011;1911;53.768;11.474;2023-08-24T08:54:54;3.57;;;1.13;;
3791;SDS011;1911;53.768;11.474;2023-08-24T08:57:20;1.83;;;1.00;;
3791;SDS011;1911;53.768;11.474;2023-08-24T08:59:49;2.43;;;1.10;;
3791;SDS011;1911;53.768;11.474;2023-08-24T09:02:17;2.60;;;0.77;;
3791;SDS011;1911;53.768;11.474;2023-08-24T09:04:44;2.17;;;0.80;;
3791;SDS011;1911;53.768;11.474;2023-08-24T09:07:12;2.00;;;0.80;;
3791;SDS011;1911;53.768;11.474;2023-08-24T09:09:38;2.33;;;0.90;;
3791;SDS011;1911;53.768;11.474;2023-08-24T09:12:07;2.17;;;0.93;;
3791;SDS011;1911;53.768;11.474;2023-08-24T09:14:33;2.40;;;0.80;;
3791;SDS011;1911;53.768;11.474;2023-08-24T09:16:59;1.50;;;1.10;;
3791;SDS011;1911;53.768;11.474;2023-08-24T09:19:28;1.37;;;0.90;;
3791;SDS011;1911;53.768;11.474;2023-08-24T09:21:58;2.13;;;0.93;;
3791;SDS011;1911;53.768;11.474;2023-08-24T09:26:57;2.20;;;0.73;;
3791;SDS011;1911;53.768;11.474;2023-08-24T09:29:22;2.80;;;0.70;;
3791;SDS011;1911;53.768;11.474;2023-08-24T09:31:49;1.40;;;0.90;;
3791;SDS011;1911;53.768;11.474;2023-08-24T09:34:18;2.53;;;0.90;;
3791;SDS011;1911;53.768;11.474;2023-08-24T09:36:47;1.70;;;0.90;;
3791;SDS011;1911;53.768;11.474;2023-08-24T09:39:16;1.10;;;0.63;;
3791;SDS011;1911;53.768;11.474;2023-08-24T09:41:45;1.87;;;1.37;;
3791;SDS011;1911;53.768;11.474;2023-08-24T09:44:12;3.00;;;1.00;;
3791;SDS011;1911;53.768;11.474;2023-08-24T09:46:38;1.30;;;1.00;;
3791;SDS011;1911;53.768;11.474;2023-08-24T09:49:06;1.97;;;0.83;;
3791;SDS011;1911;53.768;11.474;2023-08-24T09:51:33;2.47;;;1.10;;
3791;SDS011;1911;53.768;11.474;2023-08-24T09:53:59;2.13;;;0.93;;
3791;SDS011;1911;53.768;11.474;2023-08-24T09:56:31;3.00;;;1.10;;
3791;SDS011;1911;53.768;11.474;2023-08-24T09:59:00;2.70;;;1.13;;
3791;SDS011;1911;53.768;11.474;2023-08-24T10:01:38;2.90;;;1.30;;
3791;SDS011;1911;53.768;11.474;2023-08-24T10:04:07;3.60;;;1.23;;
3791;SDS011;1911;53.768;11.474;2023-08-24T10:06:34;2.53;;;1.00;;
3791;SDS011;1911;53.768;11.474;2023-08-24T10:09:01;2.07;;;1.00;;
3791;SDS011;1911;53.768;11.474;2023-08-24T10:11:32;2.80;;;1.23;;
3791;SDS011;1911;53.768;11.474;2023-08-24T10:16:35;3.23;;;1.27;;
3791;SDS011;1911;53.768;11.474;2023-08-24T10:19:02;3.10;;;1.50;;
3791;SDS011;1911;53.768;11.474;2023-08-24T10:21:28;1.60;;;0.90;;
3791;SDS011;1911;53.768;11.474;2023-08-24T10:23:54;2.27;;;1.20;;
3791;SDS011;1911;53.768;11.474;2023-08-24T10:26:22;3.67;;;1.50;;
3791;SDS011;1911;53.768;11.474;2023-08-24T10:28:49;2.47;;;1.63;;
3791;SDS011;1911;53.768;11.474;2023-08-24T10:31:16;2.90;;;1.13;;
3791;SDS011;1911;53.768;11.474;2023-08-24T10:33:42;2.70;;;1.30;;
3791;SDS011;1911;53.768;11.474;2023-08-24T10:36:11;3.43;;;1.37;;
3791;SDS011;1911;53.768;11.474;2023-08-24T10:38:41;1.87;;;1.10;;
3791;SDS011;1911;53.768;11.474;2023-08-24T10:41:08;2.63;;;1.10;;
3791;SDS011;1911;53.768;11.474;2023-08-24T10:43:34;1.77;;;1.30;;
3791;SDS011;1911;53.768;11.474;2023-08-24T10:46:03;2.73;;;1.57;;
3791;SDS011;1911;53.768;11.474;2023-08-24T10:54:00;2.90;;;1.37;;
3791;SDS011;1911;53.768;11.474;2023-08-24T10:56:38;2.90;;;0.97;;
3791;SDS011;1911;53.768;11.474;2023-08-24T10:59:11;1.50;;;1.03;;
3791;SDS011;1911;53.768;11.474;2023-08-24T11:01:41;2.57;;;1.10;;
3791;SDS011;1911;53.768;11.474;2023-08-24T11:04:10;2.10;;;0.97;;
3791;SDS011;1911;53.768;11.474;2023-08-24T11:06:50;2.13;;;0.93;;
3791;SDS011;1911;53.768;11.474;2023-08-24T11:09:20;3.80;;;1.30;;
3791;SDS011;1911;53.768;11.474;2023-08-24T11:12:00;2.30;;;0.97;;
3791;SDS011;1911;53.768;11.474;2023-08-24T11:14:26;1.60;;;1.00;;
3791;SDS011;1911;53.768;11.474;2023-08-24T11:16:57;2.93;;;1.10;;
3791;SDS011;1911;53.768;11.474;2023-08-24T11:19:27;1.60;;;1.10;;
3791;SDS011;1911;53.768;11.474;2023-08-24T11:21:55;5.33;;;2.37;;
3791;SDS011;1911;53.768;11.474;2023-08-24T11:24:21;3.00;;;1.40;;
3791;SDS011;1911;53.768;11.474;2023-08-24T11:26:47;2.23;;;1.30;;
3791;SDS011;1911;53.768;11.474;2023-08-24T11:29:14;3.20;;;1.53;;
3791;SDS011;1911;53.768;11.474;2023-08-24T11:31:40;2.87;;;1.47;;
3791;SDS011;1911;53.768;11.474;2023-08-24T11:34:06;1.93;;;1.30;;
3791;SDS011;1911;53.768;11.474;2023-08-24T11:36:42;3.40;;;1.10;;
3791;SDS011;1911;53.768;11.474;2023-08-24T11:39:14;4.13;;;1.30;;
3791;SDS011;1911;53.768;11.474;2023-08-24T11:41:44;3.10;;;1.33;;
3791;SDS011;1911;53.768;11.474;2023-08-24T11:44:30;2.57;;;1.50;;
3791;SDS011;1911;53.768;11.474;2023-08-24T11:47:14;2.50;;;1.43;;
3791;SDS011;1911;53.768;11.474;2023-08-24T11:49:41;2.27;;;1.60;;
3791;SDS011;1911;53.768;11.474;2023-08-24T11:52:07;2.57;;;1.73;;
3791;SDS011;1911;53.768;11.474;2023-08-24T11:54:33;3.20;;;1.33;;
3791;SDS011;1911;53.768;11.474;2023-08-24T11:57:05;3.63;;;1.50;;
3791;SDS011;1911;53.768;11.474;2023-08-24T11:59:31;2.30;;;1.70;;
3791;SDS011;1911;53.768;11.474;2023-08-24T12:01:57;2.97;;;1.80;;
3791;SDS011;1911;53.768;11.474;2023-08-24T12:04:23;6.47;;;2.43;;
3791;SDS011;1911;53.768;11.474;2023-08-24T12:06:49;2.90;;;1.63;;
3791;SDS011;1911;53.768;11.474;2023-08-24T12:09:15;4.33;;;2.10;;
3791;SDS011;1911;53.768;11.474;2023-08-24T12:11:41;3.83;;;2.20;;
3791;SDS011;1911;53.768;11.474;2023-08-24T12:14:07;4.07;;;1.60;;
3791;SDS011;1911;53.768;11.474;2023-08-24T12:16:34;2.70;;;1.63;;
3791;SDS011;1911;53.768;11.474;2023-08-24T12:19:00;5.83;;;2.00;;
3791;SDS011;1911;53.768;11.474;2023-08-24T12:21:29;4.40;;;1.90;;
3791;SDS011;1911;53.768;11.474;2023-08-24T12:24:02;2.90;;;2.00;;
3791;SDS011;1911;53.768;11.474;2023-08-24T12:26:30;2.17;;;1.87;;
3791;SDS011;1911;53.768;11.474;2023-08-24T12:29:07;6.17;;;1.87;;
3791;SDS011;1911;53.768;11.474;2023-08-24T12:31:34;2.63;;;2.03;;
3791;SDS011;1911;53.768;11.474;2023-08-24T12:34:07;6.03;;;2.33;;
3791;SDS011;1911;53.768;11.474;2023-08-24T12:36:35;4.03;;;2.13;;
3791;SDS011;1911;53.768;11.474;2023-08-24T12:39:03;3.30;;;1.83;;
3791;SDS011;1911;53.768;11.474;2023-08-24T12:41:32;8.33;;;2.67;;
3791;SDS011;1911;53.768;11.474;2023-08-24T12:43:58;3.57;;;2.60;;
3791;SDS011;1911;53.768;11.474;2023-08-24T12:46:24;5.53;;;2.50;;
3791;SDS011;1911;53.768;11.474;2023-08-24T12:48:50;6.23;;;2.60;;
3791;SDS011;1911;53.768;11.474;2023-08-24T12:51:16;5.57;;;2.60;;
3791;SDS011;1911;53.768;11.474;2023-08-24T12:53:42;7.53;;;2.83;;
3791;SDS011;1911;53.768;11.474;2023-08-24T12:56:08;2.70;;;2.00;;
3791;SDS011;1911;53.768;11.474;2023-08-24T12:58:33;7.27;;;2.50;;
3791;SDS011;1911;53.768;11.474;2023-08-24T13:00:59;2.23;;;1.80;;
3791;SDS011;1911;53.768;11.474;2023-08-24T13:03:25;4.20;;;2.10;;
3791;SDS011;1911;53.768;11.474;2023-08-24T13:05:51;3.43;;;1.97;;
3791;SDS011;1911;53.768;11.474;2023-08-24T13:08:16;4.43;;;2.10;;
3791;SDS011;1911;53.768;11.474;2023-08-24T13:10:42;2.30;;;2.00;;
3791;SDS011;1911;53.768;11.474;2023-08-24T13:13:07;2.70;;;1.77;;
3791;SDS011;1911;53.768;11.474;2023-08-24T13:15:33;6.20;;;2.43;;
3791;SDS011;1911;53.768;11.474;2023-08-24T13:17:58;4.13;;;1.90;;
3791;SDS011;1911;53.768;11.474;2023-08-24T13:20:24;4.20;;;2.30;;
3791;SDS011;1911;53.768;11.474;2023-08-24T13:22:53;4.87;;;2.30;;
3791;SDS011;1911;53.768;11.474;2023-08-24T13:25:18;4.07;;;1.87;;
3791;SDS011;1911;53.768;11.474;2023-08-24T13:27:44;4.33;;;1.50;;
3791;SDS011;1911;53.768;11.474;2023-08-24T13:30:10;6.17;;;1.50;;
3791;SDS011;1911;53.768;11.474;2023-08-24T13:32:35;3.90;;;2.33;;
3791;SDS011;1911;53.768;11.474;2023-08-24T13:35:02;4.57;;;2.30;;
3791;SDS011;1911;53.768;11.474;2023-08-24T13:37:28;4.67;;;2.30;;
3791;SDS011;1911;53.768;11.474;2023-08-24T13:39:53;2.80;;;1.83;;
3791;SDS011;1911;53.768;11.474;2023-08-24T13:42:19;4.83;;;2.43;;
3791;SDS011;1911;53.768;11.474;2023-08-24T13:44:45;3.00;;;1.67;;
3791;SDS011;1911;53.768;11.474;2023-08-24T13:47:11;5.23;;;1.97;;
3791;SDS011;1911;53.768;11.474;2023-08-24T13:49:36;2.53;;;2.13;;
3791;SDS011;1911;53.768;11.474;2023-08-24T13:52:02;3.40;;;2.30;;
3791;SDS011;1911;53.768;11.474;2023-08-24T13:54:28;3.70;;;2.00;;
3791;SDS011;1911;53.768;11.474;2023-08-24T13:56:55;5.23;;;2.57;;
3791;SDS011;1911;53.768;11.474;2023-08-24T13:59:21;3.87;;;2.23;;
3791;SDS011;1911;53.768;11.474;2023-08-24T14:01:46;2.90;;;1.90;;
3791;SDS011;1911;53.768;11.474;2023-08-24T14:04:12;3.30;;;1.90;;
3791;SDS011;1911;53.768;11.474;2023-08-24T14:06:38;4.40;;;1.90;;
3791;SDS011;1911;53.768;11.474;2023-08-24T14:09:04;4.03;;;2.43;;
3791;SDS011;1911;53.768;11.474;2023-08-24T14:11:31;2.57;;;2.00;;
3791;SDS011;1911;53.768;11.474;2023-08-24T14:13:57;4.40;;;2.37;;
3791;SDS011;1911;53.768;11.474;2023-08-24T14:16:23;6.17;;;4.17;;
3791;SDS011;1911;53.768;11.474;2023-08-24T14:18:49;5.70;;;3.00;;
3791;SDS011;1911;53.768;11.474;2023-08-24T14:21:15;5.50;;;2.50;;
3791;SDS011;1911;53.768;11.474;2023-08-24T14:23:41;4.27;;;2.30;;
3791;SDS011;1911;53.768;11.474;2023-08-24T14:26:07;2.43;;;1.90;;
3791;SDS011;1911;53.768;11.474;2023-08-24T14:28:52;4.97;;;2.07;;
3791;SDS011;1911;53.768;11.474;2023-08-24T14:31:23;4.07;;;2.23;;
3791;SDS011;1911;53.768;11.474;2023-08-24T14:33:50;3.00;;;2.47;;
3791;SDS011;1911;53.768;11.474;2023-08-24T14:36:16;6.73;;;3.80;;
3791;SDS011;1911;53.768;11.474;2023-08-24T14:38:42;7.30;;;2.47;;
3791;SDS011;1911;53.768;11.474;2023-08-24T14:41:11;5.27;;;2.80;;
3791;SDS011;1911;53.768;11.474;2023-08-24T14:43:38;2.10;;;1.77;;
3791;SDS011;1911;53.768;11.474;2023-08-24T14:46:03;4.20;;;2.80;;
3791;SDS011;1911;53.768;11.474;2023-08-24T14:48:30;3.97;;;2.20;;
3791;SDS011;1911;53.768;11.474;2023-08-24T14:50:56;5.43;;;2.63;;
3791;SDS011;1911;53.768;11.474;2023-08-24T14:53:22;2.87;;;2.23;;
3791;SDS011;1911;53.768;11.474;2023-08-24T14:55:48;3.90;;;1.90;;
3791;SDS011;1911;53.768;11.474;2023-08-24T14:58:13;3.90;;;2.23;;
3791;SDS011;1911;53.768;11.474;2023-08-24T15:00:39;4.97;;;2.30;;
3791;SDS011;1911;53.768;11.474;2023-08-24T15:03:05;4.40;;;2.50;;
3791;SDS011;1911;53.768;11.474;2023-08-24T15:05:30;2.60;;;1.90;;
3791;SDS011;1911;53.768;11.474;2023-08-24T15:08:01;4.00;;;1.90;;
3791;SDS011;1911;53.768;11.474;2023-08-24T15:10:27;7.00;;;1.93;;
3791;SDS011;1911;53.768;11.474;2023-08-24T15:12:53;3.70;;;1.70;;
3791;SDS011;1911;53.768;11.474;2023-08-24T15:15:18;3.53;;;1.97;;